Sagittarian — WCY5210 — position and weather

sailwx.info

Track history (hours):
 
Tides and Currents Weather Stations Pressure Air Temp Water Temp Dewpoint Dewpoint Depression Visibility Wind Speed Wind Dir Waves Ship Positions

Sagittarian

Owner: TAURUS MARINE, SAN FRANCISCO, CA. More information available from US FCC via Universal Licensing System and Coast Guard Vessel Documentation Center.

Last reported at 2017-May-28 19:15 UTC. Time now 2017-May-30 01:28 UTC.
Position N 37°46' W 122°23'.

; draft 3 m.

Type: Towing. MMSI: 366969510.

Date/timePositionNaut miles runAvg speedWind from/ knotsBaromVisibWave heightAir tempDewpointWater temp
2017-May-28 19:15N 37°46' W 122°23'1 3.8
2017-May-28 19:00N 37°47' W 122°23'4 8.0
2017-May-28 18:30N 37°49' W 122°28'3 5.9
2017-May-28 18:00N 37°49' W 122°31'0 0.5
2017-May-28 17:30N 37°49' W 122°31'3 6.9
2017-May-28 17:00N 37°50' W 122°27'3 6.8
2017-May-28 16:30N 37°53' W 122°26'2 3.3
2017-May-28 16:00N 37°55' W 122°26'1 2.7
2017-May-28 15:30N 37°55' W 122°25'0 0.1
2017-May-28 14:51N 37°55' W 122°25'4 5.3
2017-May-28 14:00N 37°51' W 122°24'5 0.3
2017-May-27 23:35N 37°46' W 122°23'0 0.7
2017-May-27 23:30N 37°46' W 122°23'0 0.2
2017-May-27 23:00N 37°46' W 122°23'0 0.5
2017-May-27 22:30N 37°47' W 122°23'0 0.6
2017-May-27 22:00N 37°46' W 122°23'0 0.0
2017-May-27 21:30N 37°46' W 122°23'0 0.0
2017-May-27 21:00N 37°46' W 122°23'1 2.1
2017-May-27 20:30N 37°48' W 122°23'510.2
2017-May-27 20:00N 37°52' W 122°24'3 4.0
2017-May-27 19:15N 37°55' W 122°25'0 0.3
2017-May-27 19:00N 37°55' W 122°25'0 0.3
2017-May-27 18:30N 37°55' W 122°25'0 0.4
2017-May-27 18:00N 37°55' W 122°25'3 6.0
2017-May-27 17:30N 37°52' W 122°24'4 8.6
2017-May-27 17:00N 37°48' W 122°23'2 3.6
2017-May-27 16:30N 37°46' W 122°23'0 0.0
2017-May-27 06:15N 37°46' W 122°23'0 0.2
2017-May-27 06:01N 37°46' W 122°23'2 4.5
2017-May-27 05:30N 37°45' W 122°21'0 0.0
2017-May-27 05:00N 37°45' W 122°21'0 0.0
2017-May-27 04:30N 37°45' W 122°21'0 0.0
2017-May-27 04:00N 37°45' W 122°21'0 0.2
2017-May-27 03:30N 37°46' W 122°21'0 0.2
2017-May-27 03:00N 37°46' W 122°21'2 3.9
2017-May-27 02:30N 37°46' W 122°23'0 0.6
2017-May-27 02:00N 37°46' W 122°23'0 0.0
2017-May-27 01:30N 37°46' W 122°23'0 0.0
2017-May-26 20:18N 37°46' W 122°23'0 1.1
2017-May-26 20:00N 37°47' W 122°23'4 8.9
2017-May-26 19:30N 37°51' W 122°24'3 6.3
2017-May-26 19:00N 37°54' W 122°24'1 2.8
2017-May-26 18:29N 37°55' W 122°22'0 0.0
2017-May-26 17:47N 37°55' W 122°22'0 0.0
2017-May-26 17:30N 37°55' W 122°22'0 0.0
2017-May-26 16:59N 37°55' W 122°22'0 0.0
2017-May-26 16:21N 37°55' W 122°22'0 0.0
2017-May-26 15:47N 37°55' W 122°22'0 0.0
2017-May-26 14:00N 37°55' W 122°22'1 2.2
2017-May-26 13:30N 37°54' W 122°22'2 4.7
2017-May-26 13:00N 37°53' W 122°24'5 9.2
2017-May-26 12:30N 37°48' W 122°23'2 3.2
2017-May-26 12:00N 37°46' W 122°23'0 0.0
2017-May-25 18:13N 37°46' W 122°23'0 0.0
2017-May-25 18:01N 37°46' W 122°23'2 4.7
2017-May-25 17:31N 37°45' W 122°21'1 1.1
2017-May-25 17:01N 37°44' W 122°21'0 0.0
2017-May-25 16:31N 37°44' W 122°21'0 0.0
2017-May-25 16:01N 37°44' W 122°21'0 0.4
2017-May-25 15:30N 37°44' W 122°21'0 0.1
2017-May-25 15:01N 37°44' W 122°21'2 2.2
2017-May-25 14:01N 37°46' W 122°23'0 0.9
2017-May-25 13:30N 37°46' W 122°23'0 0.0
2017-May-25 13:00N 37°46' W 122°23'0 0.0
2017-May-25 09:28N 37°46' W 122°23'0 0.4
2017-May-25 09:00N 37°46' W 122°23'1 1.0
2017-May-25 08:31N 37°47' W 122°23'1 1.2
2017-May-25 08:01N 37°46' W 122°23'3 6.0
2017-May-25 07:30N 37°49' W 122°23'5 9.1
2017-May-25 07:01N 37°54' W 122°25'6 8.5
2017-May-25 06:16N 38°00' W 122°24'10 3.3
2017-May-25 03:14N 38°03' W 122°12'2 9.3
2017-May-25 02:59N 38°04' W 122°15'4 8.5
2017-May-25 02:30N 38°02' W 122°20'7 9.4
2017-May-25 01:46N 37°57' W 122°26'2 9.0
2017-May-25 01:31N 37°55' W 122°25'5 9.6
2017-May-25 01:01N 37°50' W 122°23'4 8.0
2017-May-25 00:31N 37°46' W 122°23'0 0.0
2017-May-24 09:29N 37°46' W 122°23'3 5.7
2017-May-24 09:00N 37°44' W 122°21'1 1.4
2017-May-24 08:31N 37°44' W 122°21'0 0.0
2017-May-24 08:00N 37°44' W 122°21'0 0.1
2017-May-24 07:30N 37°44' W 122°21'0 0.0
2017-May-24 07:00N 37°44' W 122°21'0 0.3
2017-May-24 06:30N 37°44' W 122°20'0 0.1
2017-May-24 06:00N 37°44' W 122°20'0 0.0
2017-May-24 05:30N 37°44' W 122°20'0 0.1
2017-May-24 05:00N 37°44' W 122°21'0 0.1
2017-May-24 04:30N 37°44' W 122°20'2 4.0
2017-May-24 04:01N 37°46' W 122°21'0 0.8
2017-May-24 03:31N 37°46' W 122°21'0 0.0
2017-May-24 03:00N 37°46' W 122°21'0 0.0
2017-May-24 02:30N 37°46' W 122°21'0 0.0
2017-May-24 02:00N 37°46' W 122°21'0 0.1
2017-May-24 01:30N 37°46' W 122°21'0 0.1
2017-May-24 01:00N 37°46' W 122°21'2 3.4
2017-May-24 00:30N 37°46' W 122°23'0 0.6
2017-May-24 00:00N 37°46' W 122°23'0 0.0
2017-May-23 19:26N 37°46' W 122°23'2 5.0
2017-May-23 19:00N 37°49' W 122°23'5 9.5
2017-May-23 18:30N 37°53' W 122°25'5 9.3
2017-May-23 18:00N 37°58' W 122°26'5 8.5
2017-May-23 17:28N 38°01' W 122°22'4 8.7
2017-May-23 17:00N 38°03' W 122°18'3 4.1
2017-May-23 16:22N 38°04' W 122°15'0 0.2
2017-May-23 15:58N 38°04' W 122°15'0 0.5
2017-May-23 15:30N 38°04' W 122°14'2 4.0
2017-May-23 14:58N 38°03' W 122°17'9 8.4
2017-May-23 13:51N 37°57' W 122°26'3 9.7
2017-May-23 13:30N 37°54' W 122°25'4 8.4
2017-May-23 13:01N 37°50' W 122°24'3 6.7
2017-May-23 12:31N 37°46' W 122°23'0 0.0
2017-May-23 12:01N 37°46' W 122°23'0 0.0
2017-May-23 11:31N 37°46' W 122°23'0 0.0
2017-May-23 11:00N 37°46' W 122°23'0 0.0
2017-May-23 10:30N 37°46' W 122°23'0 0.0
2017-May-23 10:00N 37°46' W 122°23'0 0.0
2017-May-23 09:30N 37°46' W 122°23'0 0.0
2017-May-23 09:01N 37°46' W 122°23'0 0.0
2017-May-23 08:30N 37°46' W 122°23'0 0.0
2017-May-23 08:00N 37°46' W 122°23'0 0.0
2017-May-23 07:30N 37°46' W 122°23'0 0.0
2017-May-23 07:01N 37°46' W 122°23'0 0.0
2017-May-23 06:30N 37°46' W 122°23'2 3.7
2017-May-23 06:00N 37°48' W 122°23'5 9.0
2017-May-23 05:30N 37°53' W 122°24'3 5.1
2017-May-23 05:00N 37°55' W 122°25'1 2.0
2017-May-23 04:31N 37°54' W 122°25'0 0.9
2017-May-23 04:00N 37°54' W 122°25'5 9.8
2017-May-23 03:31N 37°49' W 122°23'3 5.9
2017-May-23 03:01N 37°46' W 122°23'0 0.0
2017-May-23 00:17N 37°46' W 122°23'0 0.6
2017-May-23 00:00N 37°47' W 122°23'4 8.2
2017-May-22 23:30N 37°51' W 122°24'4 7.5
2017-May-22 23:00N 37°54' W 122°24'1 2.8
2017-May-22 22:30N 37°55' W 122°22'0 0.0
2017-May-22 22:00N 37°55' W 122°22'0 0.0
2017-May-22 21:24N 37°55' W 122°22'0 0.0
2017-May-22 20:59N 37°55' W 122°22'0 0.0
2017-May-22 20:30N 37°55' W 122°22'0 0.0
2017-May-22 20:00N 37°55' W 122°22'0 0.0
2017-May-22 19:30N 37°55' W 122°22'0 0.0
2017-May-22 19:00N 37°55' W 122°22'0 0.0
2017-May-22 18:30N 37°55' W 122°22'0 0.0
2017-May-22 18:00N 37°55' W 122°22'0 0.0
2017-May-22 17:30N 37°55' W 122°22'0 0.0
2017-May-22 17:00N 37°55' W 122°22'0 0.0
2017-May-22 16:30N 37°55' W 122°22'0 0.0
2017-May-22 16:00N 37°55' W 122°22'0 0.0
2017-May-22 15:28N 37°55' W 122°22'0 0.0
2017-May-22 15:00N 37°55' W 122°22'0 0.0
2017-May-22 14:00N 37°55' W 122°22'1 1.2
2017-May-22 13:30N 37°55' W 122°22'0 0.0
2017-May-22 13:00N 37°55' W 122°22'0 0.0
2017-May-22 12:30N 37°55' W 122°22'0 0.0
2017-May-22 12:00N 37°55' W 122°22'1 3.0
2017-May-22 11:30N 37°54' W 122°24'3 6.2
2017-May-22 11:00N 37°51' W 122°24'5 9.5
2017-May-22 10:30N 37°47' W 122°23'0 0.5
2017-May-22 10:00N 37°46' W 122°23'0 0.0
2017-May-22 09:30N 37°46' W 122°23'0 0.3
2017-May-22 09:00N 37°46' W 122°23'0 0.0
2017-May-20 23:57N 37°46' W 122°23'2 4.8
2017-May-20 23:30N 37°48' W 122°24'1 1.8
2017-May-20 23:00N 37°49' W 122°25'0 0.5
2017-May-20 22:30N 37°49' W 122°25'0 0.8
2017-May-20 22:00N 37°49' W 122°25'0 0.4
2017-May-20 21:30N 37°49' W 122°25'0 0.8
2017-May-20 21:00N 37°49' W 122°25'0 0.7
2017-May-20 20:30N 37°49' W 122°25'1 1.3
2017-May-20 20:00N 37°49' W 122°25'1 1.5
2017-May-20 19:30N 37°49' W 122°25'0 0.0
2017-May-20 19:00N 37°49' W 122°25'0 0.1
2017-May-20 18:30N 37°49' W 122°25'3 5.3
2017-May-20 18:00N 37°47' W 122°23'0 0.0
2017-May-20 02:36N 37°46' W 122°23'0 1.0
2017-May-20 02:30N 37°46' W 122°23'2 4.6
2017-May-20 02:00N 37°46' W 122°20'0 0.2
2017-May-20 01:30N 37°46' W 122°20'0 0.0
2017-May-20 01:00N 37°46' W 122°20'0 0.0
2017-May-20 00:30N 37°46' W 122°20'0 0.1
2017-May-20 00:00N 37°46' W 122°20'0 0.0
2017-May-19 23:31N 37°46' W 122°20'2 3.3
2017-May-19 23:00N 37°48' W 122°21'3 5.0
2017-May-19 22:30N 37°47' W 122°17'0 0.0
2017-May-19 22:00N 37°47' W 122°17'0 0.0
2017-May-19 21:30N 37°47' W 122°17'0 0.0
2017-May-19 21:00N 37°47' W 122°17'0 0.0
2017-May-19 20:30N 37°47' W 122°17'0 0.0
2017-May-19 20:00N 37°47' W 122°17'0 0.0
2017-May-19 19:30N 37°47' W 122°17'0 0.0
2017-May-19 19:00N 37°47' W 122°17'0 0.0
2017-May-19 18:30N 37°47' W 122°17'0 0.0
2017-May-19 18:00N 37°47' W 122°17'0 0.0
2017-May-19 17:30N 37°47' W 122°17'0 0.1
2017-May-19 17:00N 37°47' W 122°17'0 0.1
2017-May-19 16:30N 37°47' W 122°17'0 0.0
2017-May-19 16:00N 37°47' W 122°17'0 0.0
2017-May-19 15:30N 37°47' W 122°17'0 0.0
2017-May-19 15:00N 37°47' W 122°17'2 2.4
2017-May-19 14:00N 37°48' W 122°20'3 5.2
2017-May-19 13:30N 37°46' W 122°23'0 0.2
2017-May-19 13:00N 37°46' W 122°23'0 0.0
2017-May-18 23:54N 37°46' W 122°23'0 0.3
2017-May-18 23:30N 37°47' W 122°23'3 6.7
2017-May-18 23:00N 37°44' W 122°21'1 2.0
2017-May-18 22:30N 37°43' W 122°20'0 0.0
2017-May-18 22:00N 37°43' W 122°20'0 0.1
2017-May-18 21:30N 37°43' W 122°20'0 0.1
2017-May-18 21:00N 37°43' W 122°20'0 0.1
2017-May-18 20:30N 37°43' W 122°20'0 0.2
2017-May-18 20:00N 37°43' W 122°20'0 0.5
2017-May-18 19:30N 37°43' W 122°20'  
Track history (hours):
 
Tides and Currents Weather Stations Pressure Air Temp Water Temp Dewpoint Dewpoint Depression Visibility Wind Speed Wind Dir Waves Ship Positions

Sagittarian

Owner: TAURUS MARINE, SAN FRANCISCO, CA. More information available from US FCC via Universal Licensing System and Coast Guard Vessel Documentation Center.

Last reported at 2017-May-28 19:15 UTC. Time now 2017-May-30 01:28 UTC.
Position N 37°46' W 122°23'.

; draft 3 m.

Type: Towing. MMSI: 366969510.

Date/timePositionNaut miles runAvg speedWind from/ knotsBaromVisibWave heightAir tempDewpointWater temp
2017-May-28 19:15N 37°46' W 122°23'1 3.8
2017-May-28 19:00N 37°47' W 122°23'4 8.0
2017-May-28 18:30N 37°49' W 122°28'3 5.9
2017-May-28 18:00N 37°49' W 122°31'0 0.5
2017-May-28 17:30N 37°49' W 122°31'3 6.9
2017-May-28 17:00N 37°50' W 122°27'3 6.8
2017-May-28 16:30N 37°53' W 122°26'2 3.3
2017-May-28 16:00N 37°55' W 122°26'1 2.7
2017-May-28 15:30N 37°55' W 122°25'0 0.1
2017-May-28 14:51N 37°55' W 122°25'4 5.3
2017-May-28 14:00N 37°51' W 122°24'5 0.3
2017-May-27 23:35N 37°46' W 122°23'0 0.7
2017-May-27 23:30N 37°46' W 122°23'0 0.2
2017-May-27 23:00N 37°46' W 122°23'0 0.5
2017-May-27 22:30N 37°47' W 122°23'0 0.6
2017-May-27 22:00N 37°46' W 122°23'0 0.0
2017-May-27 21:30N 37°46' W 122°23'0 0.0
2017-May-27 21:00N 37°46' W 122°23'1 2.1
2017-May-27 20:30N 37°48' W 122°23'510.2
2017-May-27 20:00N 37°52' W 122°24'3 4.0
2017-May-27 19:15N 37°55' W 122°25'0 0.3
2017-May-27 19:00N 37°55' W 122°25'0 0.3
2017-May-27 18:30N 37°55' W 122°25'0 0.4
2017-May-27 18:00N 37°55' W 122°25'3 6.0
2017-May-27 17:30N 37°52' W 122°24'4 8.6
2017-May-27 17:00N 37°48' W 122°23'2 3.6
2017-May-27 16:30N 37°46' W 122°23'0 0.0
2017-May-27 06:15N 37°46' W 122°23'0 0.2
2017-May-27 06:01N 37°46' W 122°23'2 4.5
2017-May-27 05:30N 37°45' W 122°21'0 0.0
2017-May-27 05:00N 37°45' W 122°21'0 0.0
2017-May-27 04:30N 37°45' W 122°21'0 0.0
2017-May-27 04:00N 37°45' W 122°21'0 0.2
2017-May-27 03:30N 37°46' W 122°21'0 0.2
2017-May-27 03:00N 37°46' W 122°21'2 3.9
2017-May-27 02:30N 37°46' W 122°23'0 0.6
2017-May-27 02:00N 37°46' W 122°23'0 0.0
2017-May-27 01:30N 37°46' W 122°23'0 0.0
2017-May-26 20:18N 37°46' W 122°23'0 1.1
2017-May-26 20:00N 37°47' W 122°23'4 8.9
2017-May-26 19:30N 37°51' W 122°24'3 6.3
2017-May-26 19:00N 37°54' W 122°24'1 2.8
2017-May-26 18:29N 37°55' W 122°22'0 0.0
2017-May-26 17:47N 37°55' W 122°22'0 0.0
2017-May-26 17:30N 37°55' W 122°22'0 0.0
2017-May-26 16:59N 37°55' W 122°22'0 0.0
2017-May-26 16:21N 37°55' W 122°22'0 0.0
2017-May-26 15:47N 37°55' W 122°22'0 0.0
2017-May-26 14:00N 37°55' W 122°22'1 2.2
2017-May-26 13:30N 37°54' W 122°22'2 4.7
2017-May-26 13:00N 37°53' W 122°24'5 9.2
2017-May-26 12:30N 37°48' W 122°23'2 3.2
2017-May-26 12:00N 37°46' W 122°23'0 0.0
2017-May-25 18:13N 37°46' W 122°23'0 0.0
2017-May-25 18:01N 37°46' W 122°23'2 4.7
2017-May-25 17:31N 37°45' W 122°21'1 1.1
2017-May-25 17:01N 37°44' W 122°21'0 0.0
2017-May-25 16:31N 37°44' W 122°21'0 0.0
2017-May-25 16:01N 37°44' W 122°21'0 0.4
2017-May-25 15:30N 37°44' W 122°21'0 0.1
2017-May-25 15:01N 37°44' W 122°21'2 2.2
2017-May-25 14:01N 37°46' W 122°23'0 0.9
2017-May-25 13:30N 37°46' W 122°23'0 0.0
2017-May-25 13:00N 37°46' W 122°23'0 0.0
2017-May-25 09:28N 37°46' W 122°23'0 0.4
2017-May-25 09:00N 37°46' W 122°23'1 1.0
2017-May-25 08:31N 37°47' W 122°23'1 1.2
2017-May-25 08:01N 37°46' W 122°23'3 6.0
2017-May-25 07:30N 37°49' W 122°23'5 9.1
2017-May-25 07:01N 37°54' W 122°25'6 8.5
2017-May-25 06:16N 38°00' W 122°24'10 3.3
2017-May-25 03:14N 38°03' W 122°12'2 9.3
2017-May-25 02:59N 38°04' W 122°15'4 8.5
2017-May-25 02:30N 38°02' W 122°20'7 9.4
2017-May-25 01:46N 37°57' W 122°26'2 9.0
2017-May-25 01:31N 37°55' W 122°25'5 9.6
2017-May-25 01:01N 37°50' W 122°23'4 8.0
2017-May-25 00:31N 37°46' W 122°23'0 0.0
2017-May-24 09:29N 37°46' W 122°23'3 5.7
2017-May-24 09:00N 37°44' W 122°21'1 1.4
2017-May-24 08:31N 37°44' W 122°21'0 0.0
2017-May-24 08:00N 37°44' W 122°21'0 0.1
2017-May-24 07:30N 37°44' W 122°21'0 0.0
2017-May-24 07:00N 37°44' W 122°21'0 0.3
2017-May-24 06:30N 37°44' W 122°20'0 0.1
2017-May-24 06:00N 37°44' W 122°20'0 0.0
2017-May-24 05:30N 37°44' W 122°20'0 0.1
2017-May-24 05:00N 37°44' W 122°21'0 0.1
2017-May-24 04:30N 37°44' W 122°20'2 4.0
2017-May-24 04:01N 37°46' W 122°21'0 0.8
2017-May-24 03:31N 37°46' W 122°21'0 0.0
2017-May-24 03:00N 37°46' W 122°21'0 0.0
2017-May-24 02:30N 37°46' W 122°21'0 0.0
2017-May-24 02:00N 37°46' W 122°21'0 0.1
2017-May-24 01:30N 37°46' W 122°21'0 0.1
2017-May-24 01:00N 37°46' W 122°21'2 3.4
2017-May-24 00:30N 37°46' W 122°23'0 0.6
2017-May-24 00:00N 37°46' W 122°23'0 0.0
2017-May-23 19:26N 37°46' W 122°23'2 5.0
2017-May-23 19:00N 37°49' W 122°23'5 9.5
2017-May-23 18:30N 37°53' W 122°25'5 9.3
2017-May-23 18:00N 37°58' W 122°26'5 8.5
2017-May-23 17:28N 38°01' W 122°22'4 8.7
2017-May-23 17:00N 38°03' W 122°18'3 4.1
2017-May-23 16:22N 38°04' W 122°15'0 0.2
2017-May-23 15:58N 38°04' W 122°15'0 0.5
2017-May-23 15:30N 38°04' W 122°14'2 4.0
2017-May-23 14:58N 38°03' W 122°17'9 8.4
2017-May-23 13:51N 37°57' W 122°26'3 9.7
2017-May-23 13:30N 37°54' W 122°25'4 8.4
2017-May-23 13:01N 37°50' W 122°24'3 6.7
2017-May-23 12:31N 37°46' W 122°23'0 0.0
2017-May-23 12:01N 37°46' W 122°23'0 0.0
2017-May-23 11:31N 37°46' W 122°23'0 0.0
2017-May-23 11:00N 37°46' W 122°23'0 0.0
2017-May-23 10:30N 37°46' W 122°23'0 0.0
2017-May-23 10:00N 37°46' W 122°23'0 0.0
2017-May-23 09:30N 37°46' W 122°23'0 0.0
2017-May-23 09:01N 37°46' W 122°23'0 0.0
2017-May-23 08:30N 37°46' W 122°23'0 0.0
2017-May-23 08:00N 37°46' W 122°23'0 0.0
2017-May-23 07:30N 37°46' W 122°23'0 0.0
2017-May-23 07:01N 37°46' W 122°23'0 0.0
2017-May-23 06:30N 37°46' W 122°23'2 3.7
2017-May-23 06:00N 37°48' W 122°23'5 9.0
2017-May-23 05:30N 37°53' W 122°24'3 5.1
2017-May-23 05:00N 37°55' W 122°25'1 2.0
2017-May-23 04:31N 37°54' W 122°25'0 0.9
2017-May-23 04:00N 37°54' W 122°25'5 9.8
2017-May-23 03:31N 37°49' W 122°23'3 5.9
2017-May-23 03:01N 37°46' W 122°23'0 0.0
2017-May-23 00:17N 37°46' W 122°23'0 0.6
2017-May-23 00:00N 37°47' W 122°23'4 8.2
2017-May-22 23:30N 37°51' W 122°24'4 7.5
2017-May-22 23:00N 37°54' W 122°24'1 2.8
2017-May-22 22:30N 37°55' W 122°22'0 0.0
2017-May-22 22:00N 37°55' W 122°22'0 0.0
2017-May-22 21:24N 37°55' W 122°22'0 0.0
2017-May-22 20:59N 37°55' W 122°22'0 0.0
2017-May-22 20:30N 37°55' W 122°22'0 0.0
2017-May-22 20:00N 37°55' W 122°22'0 0.0
2017-May-22 19:30N 37°55' W 122°22'0 0.0
2017-May-22 19:00N 37°55' W 122°22'0 0.0
2017-May-22 18:30N 37°55' W 122°22'0 0.0
2017-May-22 18:00N 37°55' W 122°22'0 0.0
2017-May-22 17:30N 37°55' W 122°22'0 0.0
2017-May-22 17:00N 37°55' W 122°22'0 0.0
2017-May-22 16:30N 37°55' W 122°22'0 0.0
2017-May-22 16:00N 37°55' W 122°22'0 0.0
2017-May-22 15:28N 37°55' W 122°22'0 0.0
2017-May-22 15:00N 37°55' W 122°22'0 0.0
2017-May-22 14:00N 37°55' W 122°22'1 1.2
2017-May-22 13:30N 37°55' W 122°22'0 0.0
2017-May-22 13:00N 37°55' W 122°22'0 0.0
2017-May-22 12:30N 37°55' W 122°22'0 0.0
2017-May-22 12:00N 37°55' W 122°22'1 3.0
2017-May-22 11:30N 37°54' W 122°24'3 6.2
2017-May-22 11:00N 37°51' W 122°24'5 9.5
2017-May-22 10:30N 37°47' W 122°23'0 0.5
2017-May-22 10:00N 37°46' W 122°23'0 0.0
2017-May-22 09:30N 37°46' W 122°23'0 0.3
2017-May-22 09:00N 37°46' W 122°23'0 0.0
2017-May-20 23:57N 37°46' W 122°23'2 4.8
2017-May-20 23:30N 37°48' W 122°24'1 1.8
2017-May-20 23:00N 37°49' W 122°25'0 0.5
2017-May-20 22:30N 37°49' W 122°25'0 0.8
2017-May-20 22:00N 37°49' W 122°25'0 0.4
2017-May-20 21:30N 37°49' W 122°25'0 0.8
2017-May-20 21:00N 37°49' W 122°25'0 0.7
2017-May-20 20:30N 37°49' W 122°25'1 1.3
2017-May-20 20:00N 37°49' W 122°25'1 1.5
2017-May-20 19:30N 37°49' W 122°25'0 0.0
2017-May-20 19:00N 37°49' W 122°25'0 0.1
2017-May-20 18:30N 37°49' W 122°25'3 5.3
2017-May-20 18:00N 37°47' W 122°23'0 0.0
2017-May-20 02:36N 37°46' W 122°23'0 1.0
2017-May-20 02:30N 37°46' W 122°23'2 4.6
2017-May-20 02:00N 37°46' W 122°20'0 0.2
2017-May-20 01:30N 37°46' W 122°20'0 0.0
2017-May-20 01:00N 37°46' W 122°20'0 0.0
2017-May-20 00:30N 37°46' W 122°20'0 0.1
2017-May-20 00:00N 37°46' W 122°20'0 0.0
2017-May-19 23:31N 37°46' W 122°20'2 3.3
2017-May-19 23:00N 37°48' W 122°21'3 5.0
2017-May-19 22:30N 37°47' W 122°17'0 0.0
2017-May-19 22:00N 37°47' W 122°17'0 0.0
2017-May-19 21:30N 37°47' W 122°17'0 0.0
2017-May-19 21:00N 37°47' W 122°17'0 0.0
2017-May-19 20:30N 37°47' W 122°17'0 0.0
2017-May-19 20:00N 37°47' W 122°17'0 0.0
2017-May-19 19:30N 37°47' W 122°17'0 0.0
2017-May-19 19:00N 37°47' W 122°17'0 0.0
2017-May-19 18:30N 37°47' W 122°17'0 0.0
2017-May-19 18:00N 37°47' W 122°17'0 0.0
2017-May-19 17:30N 37°47' W 122°17'0 0.1
2017-May-19 17:00N 37°47' W 122°17'0 0.1
2017-May-19 16:30N 37°47' W 122°17'0 0.0
2017-May-19 16:00N 37°47' W 122°17'0 0.0
2017-May-19 15:30N 37°47' W 122°17'0 0.0
2017-May-19 15:00N 37°47' W 122°17'2 2.4
2017-May-19 14:00N 37°48' W 122°20'3 5.2
2017-May-19 13:30N 37°46' W 122°23'0 0.2
2017-May-19 13:00N 37°46' W 122°23'0 0.0
2017-May-18 23:54N 37°46' W 122°23'0 0.3
2017-May-18 23:30N 37°47' W 122°23'3 6.7
2017-May-18 23:00N 37°44' W 122°21'1 2.0
2017-May-18 22:30N 37°43' W 122°20'0 0.0
2017-May-18 22:00N 37°43' W 122°20'0 0.1
2017-May-18 21:30N 37°43' W 122°20'0 0.1
2017-May-18 21:00N 37°43' W 122°20'0 0.1
2017-May-18 20:30N 37°43' W 122°20'0 0.2
2017-May-18 20:00N 37°43' W 122°20'0 0.5
2017-May-18 19:30N 37°43' W 122°20'  

Dump ship's entire track history